Terminal Aerodrome Forecast
Issued by NWS Albany, NY

Home | Current Version | Previous Version | Text Only | Print | Product List | Glossary On
Versions: 1 2 3 4 5 6 7 8 9 10 11 12 13 14 15 16 17 18
000
FTUS41 KALY 300541
TAFPOU
TAF
KPOU 300541Z 3006/3106 20004KT P6SM BKN150
     FM301000 21007KT P6SM VCSH OVC045
     FM301700 24010G15KT P6SM VCSH BKN045
     FM302000 27012G20KT P6SM VCSH BKN060
     FM310000 27007KT P6SM BKN060=

USA.gov is the U.S. government's official web portal to all federal, state and local government web resources and services.